createdAt,value
2022-08-03T00:00:36.451Z,64.12
2022-08-03T00:03:05.499Z,64.33
2022-08-03T00:05:33.873Z,64.35
2022-08-03T00:08:02.180Z,64.51
2022-08-03T00:10:30.610Z,64.70
2022-08-03T00:12:58.949Z,64.88
2022-08-03T00:15:27.275Z,65.08
2022-08-03T00:17:55.664Z,65.28
2022-08-03T00:20:24.537Z,65.16
2022-08-03T00:22:52.873Z,65.16
2022-08-03T00:25:21.302Z,65.34
2022-08-03T00:27:50.408Z,65.27
2022-08-03T00:30:19.365Z,65.35
2022-08-03T00:32:48.366Z,65.55
2022-08-03T00:35:36.584Z,65.72
2022-08-03T00:38:06.032Z,65.86
2022-08-03T00:40:35.238Z,65.84
2022-08-03T00:43:06.412Z,65.87
2022-08-03T00:45:37.770Z,65.97
2022-08-03T00:48:29.440Z,66.03
2022-08-03T00:50:56.810Z,66.17
2022-08-03T00:53:26.120Z,66.25
2022-08-03T00:55:54.555Z,66.16
2022-08-03T00:58:24.385Z,66.35
2022-08-03T01:00:52.838Z,66.31
2022-08-03T01:03:21.178Z,66.35
2022-08-03T01:05:56.475Z,66.33
2022-08-03T01:09:09.694Z,66.15
2022-08-03T01:12:00.755Z,66.51
2022-08-03T01:14:47.151Z,66.38
2022-08-03T01:17:24.743Z,66.22
2022-08-03T01:20:12.028Z,66.69
2022-08-03T01:23:14.962Z,66.78
2022-08-03T01:25:56.213Z,66.66
2022-08-03T01:28:58.410Z,66.73
2022-08-03T01:31:32.871Z,66.80
2022-08-03T01:34:05.159Z,66.74
2022-08-03T01:36:43.872Z,66.60
2022-08-03T01:39:12.942Z,66.60
2022-08-03T01:41:49.705Z,66.54
2022-08-03T01:44:29.200Z,66.40
2022-08-03T01:47:01.450Z,66.32
2022-08-03T01:49:33.705Z,66.26
2022-08-03T01:52:05.514Z,66.25
2022-08-03T01:54:45.844Z,66.34
2022-08-03T01:57:15.380Z,66.62
2022-08-03T01:59:45.689Z,66.97
2022-08-03T02:02:33.457Z,67.17
2022-08-03T02:05:10.731Z,67.69
2022-08-03T02:07:42.202Z,67.91
2022-08-03T02:10:13.499Z,67.86
2022-08-03T02:12:46.059Z,68.04
2022-08-03T02:15:17.045Z,68.48
2022-08-03T02:17:47.562Z,68.65
2022-08-03T02:20:17.333Z,68.94
2022-08-03T02:22:47.734Z,69.24
2022-08-03T02:25:16.906Z,69.95
2022-08-03T02:28:02.377Z,70.01
2022-08-03T02:30:39.566Z,70.24
2022-08-03T02:33:12.682Z,70.52
2022-08-03T02:35:43.070Z,71.01
2022-08-03T02:38:15.545Z,71.01
2022-08-03T02:40:46.412Z,70.90
2022-08-03T02:43:18.883Z,70.71
2022-08-03T02:45:49.406Z,70.83
2022-08-03T02:48:25.485Z,70.97
2022-08-03T02:50:57.285Z,71.04
2022-08-03T02:53:31.024Z,71.59
2022-08-03T02:56:00.476Z,71.44
2022-08-03T02:58:31.383Z,71.64
2022-08-03T03:01:01.035Z,71.74
2022-08-03T03:03:33.161Z,72.11
2022-08-03T03:06:06.889Z,72.14
2022-08-03T03:08:35.603Z,72.21
2022-08-03T03:11:09.263Z,72.66
2022-08-03T03:13:39.984Z,72.58
2022-08-03T03:16:08.804Z,72.61
2022-08-03T03:18:38.469Z,73.02
2022-08-03T03:21:10.034Z,72.87
2022-08-03T03:23:41.059Z,72.73
2022-08-03T03:26:09.986Z,72.73
2022-08-03T03:28:38.499Z,72.74
2022-08-03T03:31:07.946Z,72.43
2022-08-03T03:33:37.730Z,72.04
2022-08-03T03:36:07.284Z,71.59
2022-08-03T03:38:35.695Z,71.13
2022-08-03T03:41:05.242Z,70.88
2022-08-03T03:43:34.899Z,70.75
2022-08-03T03:46:03.443Z,70.51
2022-08-03T03:48:32.294Z,70.45
2022-08-03T03:51:02.112Z,70.44
2022-08-03T03:53:30.537Z,70.59
2022-08-03T03:56:02.647Z,70.42
2022-08-03T03:58:33.009Z,70.65
2022-08-03T04:01:01.839Z,71.26
2022-08-03T04:03:30.505Z,71.42
2022-08-03T04:06:17.995Z,71.14
2022-08-03T04:09:05.004Z,71.08
2022-08-03T04:11:47.882Z,71.04
2022-08-03T04:14:29.204Z,70.61
2022-08-03T04:17:01.948Z,70.71
2022-08-03T04:19:42.506Z,70.60
2022-08-03T04:22:15.019Z,70.19
2022-08-03T04:24:57.394Z,70.11
2022-08-03T04:27:28.995Z,70.00
2022-08-03T04:29:58.144Z,70.02
2022-08-03T04:32:29.033Z,69.64
2022-08-03T04:34:57.998Z,69.18
2022-08-03T04:37:48.193Z,69.00
2022-08-03T04:40:25.653Z,68.72
2022-08-03T04:43:00.521Z,68.63
2022-08-03T04:45:30.762Z,68.41
2022-08-03T04:47:59.864Z,68.19
2022-08-03T04:50:31.441Z,67.92
2022-08-03T04:53:07.281Z,67.72
2022-08-03T04:55:36.101Z,67.50
2022-08-03T04:58:05.326Z,67.19
2022-08-03T05:00:33.903Z,66.96
2022-08-03T05:03:02.304Z,66.78
2022-08-03T05:05:48.798Z,66.68
2022-08-03T05:08:20.523Z,66.53
2022-08-03T05:10:59.083Z,65.98
2022-08-03T05:13:27.969Z,65.37
2022-08-03T05:15:56.449Z,65.31
2022-08-03T05:18:24.770Z,65.09
2022-08-03T05:20:53.144Z,64.76
2022-08-03T05:23:21.587Z,64.30
2022-08-03T05:25:50.357Z,64.37
2022-08-03T05:28:19.016Z,64.64
2022-08-03T05:30:47.427Z,64.63
2022-08-03T05:33:15.811Z,64.62
2022-08-03T05:35:57.499Z,64.69
2022-08-03T05:38:34.768Z,64.68
2022-08-03T05:41:21.891Z,64.63
2022-08-03T05:43:54.986Z,64.68
2022-08-03T05:46:23.329Z,64.23
2022-08-03T05:48:51.921Z,63.25
2022-08-03T05:51:20.659Z,62.23
2022-08-03T05:53:49.279Z,61.78
2022-08-03T05:56:17.648Z,60.71
2022-08-03T05:58:47.836Z,59.01
2022-08-03T06:01:17.523Z,58.34
2022-08-03T06:03:46.686Z,57.87
2022-08-03T06:06:15.568Z,56.11
2022-08-03T06:08:45.494Z,55.41
2022-08-03T06:11:13.865Z,54.60
2022-08-03T06:13:42.852Z,53.95
2022-08-03T06:16:11.343Z,51.52
2022-08-03T06:18:41.133Z,49.79
2022-08-03T06:21:15.551Z,49.69
2022-08-03T06:23:54.763Z,49.54
2022-08-03T06:26:25.525Z,48.57
2022-08-03T06:28:55.374Z,47.63
2022-08-03T06:31:33.078Z,46.75
2022-08-03T06:34:31.610Z,46.11
2022-08-03T06:36:53.136Z,45.18
2022-08-03T06:39:23.573Z,44.82
2022-08-03T06:41:53.832Z,44.65
2022-08-03T06:44:22.204Z,44.27
2022-08-03T06:46:51.614Z,41.92
2022-08-03T06:49:20.162Z,42.57
2022-08-03T06:52:03.767Z,41.49
2022-08-03T06:54:36.105Z,41.38
2022-08-03T06:57:05.848Z,39.73
2022-08-03T07:00:07.775Z,39.54
2022-08-03T07:02:22.754Z,39.77
2022-08-03T07:04:51.138Z,36.97
2022-08-03T07:07:20.842Z,38.02
2022-08-03T07:09:54.962Z,37.85
2022-08-03T07:12:27.887Z,36.00
2022-08-03T07:15:00.912Z,36.08
2022-08-03T07:17:31.951Z,34.84
2022-08-03T07:20:01.712Z,33.81
2022-08-03T07:22:30.422Z,32.59
2022-08-03T07:24:58.884Z,33.06
2022-08-03T07:27:28.786Z,32.91
2022-08-03T07:29:58.908Z,32.42
2022-08-03T07:32:28.706Z,31.66
2022-08-03T07:35:00.829Z,32.13
2022-08-03T07:37:31.148Z,32.93
2022-08-03T07:40:01.241Z,32.79
2022-08-03T07:42:30.187Z,31.69
2022-08-03T07:44:59.624Z,31.84
2022-08-03T07:47:35.636Z,30.57
2022-08-03T07:50:08.556Z,31.49
2022-08-03T07:52:50.080Z,31.24
2022-08-03T07:55:26.649Z,30.67
2022-08-03T07:58:10.153Z,30.63
2022-08-03T08:00:39.001Z,29.98
2022-08-03T08:03:07.591Z,29.16
2022-08-03T08:05:36.009Z,29.12
2022-08-03T08:08:05.168Z,28.64
2022-08-03T08:10:34.084Z,27.60
2022-08-03T08:13:03.775Z,27.52
2022-08-03T08:15:33.114Z,27.19
2022-08-03T08:18:02.733Z,27.21
2022-08-03T08:20:36.531Z,27.23
2022-08-03T08:23:24.229Z,25.98
2022-08-03T08:25:57.279Z,26.75
2022-08-03T08:28:32.718Z,27.39
2022-08-03T08:31:02.765Z,26.84
2022-08-03T08:36:20.035Z,26.39
2022-08-03T08:38:48.549Z,26.32
2022-08-03T08:41:17.584Z,25.94
2022-08-03T08:43:45.886Z,25.85
2022-08-03T08:46:23.133Z,25.56
2022-08-03T08:48:54.638Z,26.35
2022-08-03T08:51:51.011Z,25.43
2022-08-03T08:54:21.580Z,25.67
2022-08-03T08:56:52.877Z,25.70
2022-08-03T08:59:22.517Z,25.26
2022-08-03T09:01:50.879Z,25.67
2022-08-03T09:04:19.343Z,25.66
2022-08-03T09:07:04.686Z,24.80
2022-08-03T09:10:11.332Z,24.65
2022-08-03T09:12:42.456Z,24.76
2022-08-03T09:15:28.877Z,24.79
2022-08-03T09:18:01.983Z,25.36
2022-08-03T09:20:33.574Z,25.20
2022-08-03T09:23:43.819Z,25.07
2022-08-03T09:26:01.865Z,25.76
2022-08-03T09:29:00.712Z,26.05
2022-08-03T09:31:37.828Z,25.75
2022-08-03T09:34:11.922Z,25.88
2022-08-03T09:37:13.106Z,24.96
2022-08-03T09:39:42.446Z,23.95
2022-08-03T09:42:14.428Z,23.68
2022-08-03T09:44:49.353Z,23.89
2022-08-03T09:52:11.037Z,24.66
2022-08-03T09:54:25.696Z,23.24
2022-08-03T09:56:54.305Z,23.23
2022-08-03T09:59:31.565Z,23.64
2022-08-03T10:02:00.711Z,21.87
2022-08-03T10:04:29.077Z,22.70
2022-08-03T10:07:09.654Z,23.09
2022-08-03T10:09:38.950Z,22.80
2022-08-03T10:12:09.375Z,23.23
2022-08-03T10:14:39.701Z,22.91
2022-08-03T10:17:09.653Z,22.91
2022-08-03T10:19:38.571Z,22.41
2022-08-03T10:22:22.898Z,22.57
2022-08-03T10:29:14.710Z,20.89
2022-08-03T10:31:54.753Z,21.08
2022-08-03T10:34:29.830Z,21.70
2022-08-03T10:37:00.410Z,20.60
2022-08-03T10:39:30.897Z,21.46
2022-08-03T10:42:02.705Z,21.19
2022-08-03T10:44:40.138Z,20.48
2022-08-03T10:47:11.531Z,19.74
2022-08-03T10:49:40.470Z,20.07
2022-08-03T10:52:13.404Z,20.76
2022-08-03T10:55:17.274Z,20.41
2022-08-03T10:57:48.973Z,19.66
2022-08-03T11:00:20.954Z,20.27
2022-08-03T11:03:11.203Z,20.80
2022-08-03T11:06:03.299Z,19.97
2022-08-03T11:08:36.975Z,19.21
2022-08-03T11:11:17.509Z,19.30
2022-08-03T11:14:07.912Z,19.24
2022-08-03T11:16:39.689Z,19.80
2022-08-03T11:19:13.583Z,19.91
2022-08-03T11:21:54.072Z,19.78
2022-08-03T11:24:51.479Z,19.94
2022-08-03T11:27:23.009Z,19.88
2022-08-03T11:34:15.198Z,18.21
2022-08-03T11:37:22.971Z,19.30
2022-08-03T11:39:54.810Z,19.43
2022-08-03T11:42:23.516Z,19.82
2022-08-03T11:44:52.713Z,19.44
2022-08-03T11:47:22.488Z,18.57
2022-08-03T11:49:54.332Z,18.04
2022-08-03T11:52:26.731Z,19.26
2022-08-03T11:54:57.508Z,19.39
2022-08-03T11:59:10.748Z,19.63
2022-08-03T12:00:31.360Z,18.79
2022-08-03T12:03:05.903Z,18.68
2022-08-03T12:05:54.910Z,17.60
2022-08-03T12:08:32.789Z,17.62
2022-08-03T12:11:08.799Z,17.90
2022-08-03T12:14:44.867Z,18.12
2022-08-03T12:16:35.965Z,17.86
2022-08-03T12:19:07.032Z,17.78
2022-08-03T12:21:35.638Z,18.30
2022-08-03T12:24:05.608Z,18.68
2022-08-03T12:26:57.213Z,18.50
2022-08-03T12:29:27.872Z,19.50
2022-08-03T12:31:56.580Z,19.48
2022-08-03T12:34:25.088Z,19.48
2022-08-03T12:37:00.429Z,19.39
2022-08-03T12:39:31.475Z,19.44
2022-08-03T12:41:59.927Z,19.59
2022-08-03T12:44:33.317Z,19.54
2022-08-03T12:47:04.101Z,19.01
2022-08-03T12:49:49.164Z,19.00
2022-08-03T12:52:19.402Z,19.12
2022-08-03T12:55:06.049Z,18.40
2022-08-03T12:57:41.693Z,18.42
2022-08-03T13:00:21.798Z,18.33
2022-08-03T13:03:38.578Z,18.94
2022-08-03T13:05:52.334Z,19.92
2022-08-03T13:08:25.668Z,20.51
2022-08-03T13:10:54.036Z,21.13
2022-08-03T13:13:41.117Z,21.12
2022-08-03T13:16:09.538Z,20.96
2022-08-03T13:18:37.924Z,20.68
2022-08-03T13:21:06.718Z,20.94
2022-08-03T13:23:35.068Z,21.14
2022-08-03T13:26:03.443Z,21.95
2022-08-03T13:28:31.759Z,21.76
2022-08-03T13:31:00.170Z,21.82
2022-08-03T13:33:28.958Z,21.18
2022-08-03T13:35:57.438Z,21.11
2022-08-03T13:38:27.232Z,21.33
2022-08-03T13:40:57.026Z,22.59
2022-08-03T13:43:25.447Z,22.68
2022-08-03T13:45:57.982Z,22.73
2022-08-03T13:48:36.638Z,22.85
2022-08-03T13:51:11.848Z,22.45
2022-08-03T13:53:52.568Z,21.10
2022-08-03T13:56:20.996Z,20.50
2022-08-03T13:58:49.314Z,19.97
2022-08-03T14:01:25.940Z,19.94
2022-08-03T14:04:06.546Z,20.00
2022-08-03T14:06:49.452Z,19.68
2022-08-03T14:09:17.926Z,19.69
2022-08-03T14:12:04.089Z,19.49
2022-08-03T14:14:35.791Z,19.77
2022-08-03T14:17:04.259Z,20.08
2022-08-03T14:19:32.655Z,20.40
2022-08-03T14:22:21.788Z,21.07
2022-08-03T14:24:50.117Z,21.69
2022-08-03T14:27:20.242Z,21.86
2022-08-03T14:29:49.697Z,21.40
2022-08-03T14:32:17.989Z,21.20
2022-08-03T14:34:46.314Z,21.09
2022-08-03T14:37:14.879Z,21.00
2022-08-03T14:40:00.415Z,21.27
2022-08-03T14:42:29.446Z,21.49
2022-08-03T14:45:03.457Z,21.71
2022-08-03T14:47:36.458Z,21.71
2022-08-03T14:50:30.830Z,21.34
2022-08-03T14:53:07.738Z,21.46
2022-08-03T14:55:38.777Z,21.46
2022-08-03T14:58:23.536Z,21.57
2022-08-03T15:00:53.451Z,21.30
2022-08-03T15:03:25.792Z,21.01
2022-08-03T15:05:56.856Z,21.88
2022-08-03T15:08:26.903Z,22.06
2022-08-03T15:10:55.295Z,22.26
2022-08-03T15:13:25.506Z,22.30
2022-08-03T15:15:53.876Z,22.69
2022-08-03T15:18:22.257Z,22.57
2022-08-03T15:20:51.055Z,22.38
2022-08-03T15:23:19.651Z,22.17
2022-08-03T15:26:28.679Z,22.30
2022-08-03T15:28:37.432Z,22.45
2022-08-03T15:31:07.207Z,22.30
2022-08-03T15:33:35.632Z,22.27
2022-08-03T15:36:05.082Z,22.15
2022-08-03T15:38:33.518Z,22.26
2022-08-03T15:41:01.850Z,22.47
2022-08-03T15:43:30.248Z,22.90
2022-08-03T15:46:27.747Z,23.23
2022-08-03T15:48:47.530Z,23.38
2022-08-03T15:51:16.255Z,23.56
2022-08-03T15:53:44.673Z,24.05
2022-08-03T15:56:16.802Z,24.26
2022-08-03T15:59:07.627Z,24.57
2022-08-03T16:01:35.604Z,24.59
2022-08-03T16:04:04.509Z,24.77
2022-08-03T16:06:35.806Z,24.98
2022-08-03T16:09:22.888Z,24.91
2022-08-03T16:11:55.775Z,24.98
2022-08-03T16:14:35.620Z,25.28
2022-08-03T16:17:06.455Z,25.23
2022-08-03T16:19:35.677Z,25.23
2022-08-03T16:22:04.214Z,25.28
2022-08-03T16:24:33.060Z,25.39
2022-08-03T16:27:01.683Z,25.31
2022-08-03T16:29:30.158Z,25.12
2022-08-03T16:31:58.483Z,25.00
2022-08-03T16:34:26.874Z,24.84
2022-08-03T16:36:55.186Z,24.62
2022-08-03T16:39:23.652Z,24.63
2022-08-03T16:41:54.507Z,24.75
2022-08-03T16:44:31.143Z,24.94
2022-08-03T16:46:59.889Z,25.36
2022-08-03T16:49:55.543Z,25.28
2022-08-03T16:52:17.949Z,25.32
2022-08-03T16:54:52.469Z,25.53
2022-08-03T16:57:56.052Z,25.75
2022-08-03T17:00:32.977Z,26.07
2022-08-03T17:03:19.107Z,26.04
2022-08-03T17:05:50.229Z,26.60
2022-08-03T17:08:26.114Z,26.48
2022-08-03T17:10:56.517Z,26.71
2022-08-03T17:13:39.272Z,26.89
2022-08-03T17:16:10.733Z,27.30
2022-08-03T17:23:33.891Z,27.74
2022-08-03T17:26:02.179Z,28.00
2022-08-03T17:28:51.847Z,28.06
2022-08-03T17:31:30.841Z,28.31
2022-08-03T17:34:04.452Z,28.51
2022-08-03T17:37:03.146Z,28.58
2022-08-03T17:39:48.454Z,29.05
2022-08-03T17:42:30.892Z,29.24
2022-08-03T17:45:03.887Z,29.33
2022-08-03T17:47:42.774Z,29.73
2022-08-03T17:50:24.561Z,29.92
2022-08-03T17:57:27.114Z,30.62
2022-08-03T18:00:26.030Z,30.56
2022-08-03T18:03:18.637Z,30.91
2022-08-03T18:06:12.722Z,31.62
2022-08-03T18:13:20.264Z,32.31
2022-08-03T18:16:03.369Z,32.84
2022-08-03T18:18:38.734Z,32.90
2022-08-03T18:21:17.164Z,33.23
2022-08-03T18:23:50.298Z,33.30
2022-08-03T18:26:21.766Z,33.47
2022-08-03T18:28:54.883Z,33.67
2022-08-03T18:31:59.789Z,33.85
2022-08-03T18:34:32.513Z,34.14
2022-08-03T18:37:07.183Z,34.16
2022-08-03T18:39:49.826Z,34.55
2022-08-03T18:42:25.676Z,34.57
2022-08-03T18:44:56.825Z,34.70
2022-08-03T18:47:52.531Z,34.95
2022-08-03T18:55:04.525Z,35.25
2022-08-03T18:58:22.848Z,35.23
2022-08-03T19:02:00.133Z,35.50
2022-08-03T19:04:19.722Z,35.73
2022-08-03T19:07:22.163Z,35.87
2022-08-03T19:14:11.368Z,36.08
2022-08-03T19:16:43.732Z,36.52
2022-08-03T19:19:17.599Z,36.43
2022-08-03T19:21:48.544Z,36.73
2022-08-03T19:24:23.350Z,37.02
2022-08-03T19:26:56.210Z,37.06
2022-08-03T19:29:25.438Z,37.21
2022-08-03T19:32:21.077Z,37.30
2022-08-03T19:34:51.859Z,37.48
2022-08-03T19:37:22.206Z,37.70
2022-08-03T19:39:56.735Z,37.93
2022-08-03T19:42:31.066Z,38.15
2022-08-03T19:45:11.223Z,38.17
2022-08-03T19:47:51.653Z,38.37
2022-08-03T19:50:21.023Z,38.25
2022-08-03T19:52:50.331Z,38.56
2022-08-03T19:55:18.811Z,38.67
2022-08-03T19:57:49.662Z,38.80
2022-08-03T20:00:26.111Z,38.78
2022-08-03T20:02:57.258Z,38.96
2022-08-03T20:05:26.604Z,39.03
2022-08-03T20:07:58.034Z,39.04
2022-08-03T20:10:27.032Z,39.14
2022-08-03T20:12:55.383Z,39.24
2022-08-03T20:15:31.783Z,39.52
2022-08-03T20:18:01.012Z,39.70
2022-08-03T20:20:32.836Z,39.54
2022-08-03T20:23:07.147Z,39.49
2022-08-03T20:25:58.127Z,39.73
2022-08-03T20:28:50.505Z,39.68
2022-08-03T20:31:25.223Z,39.96
2022-08-03T20:34:01.163Z,40.07
2022-08-03T20:36:29.611Z,40.27
2022-08-03T20:38:59.545Z,40.08
2022-08-03T20:41:28.373Z,40.06
2022-08-03T20:44:01.080Z,39.98
2022-08-03T20:46:38.562Z,40.24
2022-08-03T20:49:23.043Z,40.25
2022-08-03T20:51:53.841Z,40.34
2022-08-03T20:54:29.856Z,40.52
2022-08-03T20:57:04.196Z,40.83
2022-08-03T20:59:51.244Z,40.71
2022-08-03T21:02:29.454Z,40.79
2022-08-03T21:05:03.726Z,40.84
2022-08-03T21:08:04.936Z,40.84
2022-08-03T21:10:41.962Z,40.87
2022-08-03T21:12:57.103Z,32.15
2022-08-03T21:16:11.742Z,40.96
2022-08-03T21:22:13.955Z,40.96
2022-08-03T21:24:43.901Z,41.28
2022-08-03T21:27:13.040Z,41.13
2022-08-03T21:29:52.866Z,41.41
2022-08-03T21:32:30.002Z,42.41
2022-08-03T21:35:01.705Z,42.84
2022-08-03T21:37:30.100Z,42.37
2022-08-03T21:39:58.539Z,43.33
2022-08-03T21:42:27.043Z,43.61
2022-08-03T21:44:55.347Z,44.25
2022-08-03T21:47:25.329Z,44.57
2022-08-03T21:50:06.247Z,44.91
2022-08-03T21:52:46.391Z,45.59
2022-08-03T21:55:18.386Z,45.71
2022-08-03T21:57:53.483Z,46.29
2022-08-03T22:00:23.695Z,46.55
2022-08-03T22:02:57.126Z,46.72
2022-08-03T22:05:42.608Z,46.99
2022-08-03T22:08:15.361Z,47.06
2022-08-03T22:10:45.191Z,47.24
2022-08-03T22:13:16.262Z,47.15
2022-08-03T22:15:49.039Z,47.06
2022-08-03T22:18:39.168Z,46.84
2022-08-03T22:21:10.294Z,46.79
2022-08-03T22:23:51.919Z,46.69
2022-08-03T22:26:34.816Z,46.58
2022-08-03T22:29:08.395Z,46.68
2022-08-03T22:31:59.195Z,46.58
2022-08-03T22:34:27.435Z,46.53
2022-08-03T22:37:00.402Z,46.62
2022-08-03T22:39:30.076Z,46.78
2022-08-03T22:41:59.233Z,46.91
2022-08-03T22:44:28.560Z,47.28
2022-08-03T22:46:58.355Z,47.83
2022-08-03T22:49:29.072Z,47.29
2022-08-03T22:51:58.724Z,47.43
2022-08-03T22:54:28.281Z,47.69
2022-08-03T22:56:58.699Z,47.90
2022-08-03T22:59:40.682Z,48.09
2022-08-03T23:02:21.185Z,48.35
2022-08-03T23:04:56.876Z,48.38
2022-08-03T23:07:33.639Z,48.41
2022-08-03T23:10:05.496Z,48.56
2022-08-03T23:12:37.356Z,48.85
2022-08-03T23:15:08.607Z,48.86
2022-08-03T23:17:58.026Z,49.02
2022-08-03T23:20:29.091Z,49.19
2022-08-03T23:22:58.327Z,49.05
2022-08-03T23:25:27.354Z,49.05
2022-08-03T23:28:04.529Z,49.16
2022-08-03T23:30:37.978Z,49.00
2022-08-03T23:33:08.542Z,49.12
2022-08-03T23:36:29.898Z,49.46
2022-08-03T23:38:46.321Z,49.62
2022-08-03T23:41:17.829Z,49.84
2022-08-03T23:43:51.687Z,49.81
2022-08-03T23:46:24.068Z,49.82
2022-08-03T23:48:53.934Z,50.16
2022-08-03T23:51:35.718Z,50.30
2022-08-03T23:54:24.303Z,50.43
2022-08-03T23:57:25.083Z,50.84
